sensor_id;sensor_type;location;lat;lon;timestamp;pressure;altitude;pressure_sealevel;temperature;humidity
40315;BME280;26021;45.640;11.302;2023-01-26T00:00:52;99028.63;;;4.33;100.00
40315;BME280;26021;45.640;11.302;2023-01-26T00:03:18;99003.69;;;4.35;100.00
40315;BME280;26021;45.640;11.302;2023-01-26T00:05:44;99018.41;;;4.49;100.00
40315;BME280;26021;45.640;11.302;2023-01-26T00:08:10;99015.78;;;4.28;100.00
40315;BME280;26021;45.640;11.302;2023-01-26T00:10:37;98960.72;;;4.22;100.00
40315;BME280;26021;45.640;11.302;2023-01-26T00:13:04;99008.44;;;4.41;100.00
40315;BME280;26021;45.640;11.302;2023-01-26T00:15:34;99004.69;;;4.44;100.00
40315;BME280;26021;45.640;11.302;2023-01-26T00:18:00;98995.56;;;4.27;100.00
40315;BME280;26021;45.640;11.302;2023-01-26T00:20:27;98991.81;;;4.30;100.00
40315;BME280;26021;45.640;11.302;2023-01-26T00:22:52;98968.75;;;4.11;100.00
40315;BME280;26021;45.640;11.302;2023-01-26T00:25:18;98995.41;;;4.19;100.00
40315;BME280;26021;45.640;11.302;2023-01-26T00:27:44;98992.94;;;4.27;100.00
40315;BME280;26021;45.640;11.302;2023-01-26T00:30:09;98987.19;;;4.22;100.00
40315;BME280;26021;45.640;11.302;2023-01-26T00:32:35;98983.16;;;4.28;100.00
40315;BME280;26021;45.640;11.302;2023-01-26T00:35:02;98974.09;;;3.90;100.00
40315;BME280;26021;45.640;11.302;2023-01-26T00:37:27;98946.09;;;3.88;100.00
40315;BME280;26021;45.640;11.302;2023-01-26T00:39:53;98981.81;;;4.03;100.00
40315;BME280;26021;45.640;11.302;2023-01-26T00:42:18;98978.28;;;3.93;100.00
40315;BME280;26021;45.640;11.302;2023-01-26T00:44:44;98975.06;;;3.89;100.00
40315;BME280;26021;45.640;11.302;2023-01-26T00:47:11;98974.34;;;4.18;100.00
40315;BME280;26021;45.640;11.302;2023-01-26T00:49:37;98971.84;;;4.16;100.00
40315;BME280;26021;45.640;11.302;2023-01-26T00:52:03;98965.84;;;4.14;100.00
40315;BME280;26021;45.640;11.302;2023-01-26T00:54:29;98919.66;;;3.97;100.00
40315;BME280;26021;45.640;11.302;2023-01-26T00:56:55;98973.22;;;3.80;100.00
40315;BME280;26021;45.640;11.302;2023-01-26T00:59:20;98950.75;;;3.74;100.00
40315;BME280;26021;45.640;11.302;2023-01-26T01:01:47;98949.41;;;3.80;100.00
40315;BME280;26021;45.640;11.302;2023-01-26T01:04:13;98975.63;;;3.93;100.00
40315;BME280;26021;45.640;11.302;2023-01-26T01:06:38;98963.25;;;3.93;100.00
40315;BME280;26021;45.640;11.302;2023-01-26T01:09:04;98953.31;;;4.16;100.00
40315;BME280;26021;45.640;11.302;2023-01-26T01:11:29;98960.25;;;4.07;100.00
40315;BME280;26021;45.640;11.302;2023-01-26T01:13:55;98957.69;;;3.96;100.00
40315;BME280;26021;45.640;11.302;2023-01-26T01:16:20;98961.56;;;3.92;100.00
40315;BME280;26021;45.640;11.302;2023-01-26T01:18:46;98929.81;;;3.92;100.00
40315;BME280;26021;45.640;11.302;2023-01-26T01:21:15;98951.44;;;4.37;100.00
40315;BME280;26021;45.640;11.302;2023-01-26T01:23:42;98957.59;;;4.07;100.00
40315;BME280;26021;45.640;11.302;2023-01-26T01:26:08;98956.47;;;4.00;100.00
40315;BME280;26021;45.640;11.302;2023-01-26T01:28:35;98958.78;;;3.94;100.00
40315;BME280;26021;45.640;11.302;2023-01-26T01:31:08;98954.91;;;3.98;100.00
40315;BME280;26021;45.640;11.302;2023-01-26T01:33:34;98953.28;;;4.06;100.00
40315;BME280;26021;45.640;11.302;2023-01-26T01:36:05;98952.84;;;4.01;100.00
40315;BME280;26021;45.640;11.302;2023-01-26T01:38:31;98952.59;;;4.14;100.00
40315;BME280;26021;45.640;11.302;2023-01-26T01:40:57;98850.69;;;3.28;100.00
40315;BME280;26021;45.640;11.302;2023-01-26T01:43:24;98942.00;;;3.74;100.00
40315;BME280;26021;45.640;11.302;2023-01-26T01:45:50;98937.88;;;3.91;100.00
40315;BME280;26021;45.640;11.302;2023-01-26T01:50:59;98927.91;;;4.04;100.00
40315;BME280;26021;45.640;11.302;2023-01-26T01:53:31;98937.53;;;4.05;100.00
40315;BME280;26021;45.640;11.302;2023-01-26T01:56:01;98936.56;;;4.06;100.00
40315;BME280;26021;45.640;11.302;2023-01-26T01:58:29;98924.84;;;3.99;100.00
40315;BME280;26021;45.640;11.302;2023-01-26T02:00:56;98717.59;;;2.78;100.00
40315;BME280;26021;45.640;11.302;2023-01-26T02:03:24;98860.00;;;3.53;100.00
40315;BME280;26021;45.640;11.302;2023-01-26T02:06:17;98884.94;;;3.81;100.00
40315;BME280;26021;45.640;11.302;2023-01-26T02:08:50;98922.09;;;4.10;100.00
40315;BME280;26021;45.640;11.302;2023-01-26T02:11:21;98902.59;;;4.11;100.00
40315;BME280;26021;45.640;11.302;2023-01-26T02:13:49;98877.31;;;3.88;100.00
40315;BME280;26021;45.640;11.302;2023-01-26T02:16:16;98882.16;;;3.82;100.00
40315;BME280;26021;45.640;11.302;2023-01-26T02:18:42;98913.28;;;4.00;100.00
40315;BME280;26021;45.640;11.302;2023-01-26T02:21:14;98909.97;;;4.07;100.00
40315;BME280;26021;45.640;11.302;2023-01-26T02:24:06;98817.25;;;3.48;100.00
40315;BME280;26021;45.640;11.302;2023-01-26T02:26:36;98913.56;;;4.06;100.00
40315;BME280;26021;45.640;11.302;2023-01-26T02:29:04;98888.28;;;3.83;100.00
40315;BME280;26021;45.640;11.302;2023-01-26T02:31:31;98876.75;;;3.94;100.00
40315;BME280;26021;45.640;11.302;2023-01-26T02:33:56;98892.03;;;4.21;100.00
40315;BME280;26021;45.640;11.302;2023-01-26T02:36:25;98881.53;;;4.00;100.00
40315;BME280;26021;45.640;11.302;2023-01-26T02:41:20;98802.41;;;3.26;100.00
40315;BME280;26021;45.640;11.302;2023-01-26T02:44:07;98878.75;;;4.01;100.00
40315;BME280;26021;45.640;11.302;2023-01-26T02:46:34;98876.50;;;3.97;100.00
40315;BME280;26021;45.640;11.302;2023-01-26T02:48:59;98844.63;;;3.68;100.00
40315;BME280;26021;45.640;11.302;2023-01-26T02:51:43;98871.06;;;3.98;100.00
40315;BME280;26021;45.640;11.302;2023-01-26T02:54:08;98872.34;;;4.04;100.00
40315;BME280;26021;45.640;11.302;2023-01-26T02:56:54;98865.84;;;4.37;100.00
40315;BME280;26021;45.640;11.302;2023-01-26T02:59:19;98868.34;;;4.19;100.00
40315;BME280;26021;45.640;11.302;2023-01-26T03:01:47;98858.25;;;3.94;100.00
40315;BME280;26021;45.640;11.302;2023-01-26T03:04:14;98792.19;;;3.73;100.00
40315;BME280;26021;45.640;11.302;2023-01-26T03:06:39;98859.41;;;4.20;100.00
40315;BME280;26021;45.640;11.302;2023-01-26T03:09:05;98856.53;;;4.42;100.00
40315;BME280;26021;45.640;11.302;2023-01-26T03:11:31;98850.22;;;4.24;100.00
40315;BME280;26021;45.640;11.302;2023-01-26T03:14:07;98846.03;;;4.12;100.00
40315;BME280;26021;45.640;11.302;2023-01-26T03:16:32;98854.09;;;4.01;100.00
40315;BME280;26021;45.640;11.302;2023-01-26T03:18:57;98845.44;;;3.99;100.00
40315;BME280;26021;45.640;11.302;2023-01-26T03:21:29;98855.31;;;3.97;100.00
40315;BME280;26021;45.640;11.302;2023-01-26T03:24:13;98844.91;;;4.14;100.00
40315;BME280;26021;45.640;11.302;2023-01-26T03:26:58;98837.63;;;3.97;100.00
40315;BME280;26021;45.640;11.302;2023-01-26T03:29:59;98841.53;;;3.93;100.00
40315;BME280;26021;45.640;11.302;2023-01-26T03:32:24;98837.38;;;4.10;100.00
40315;BME280;26021;45.640;11.302;2023-01-26T03:34:50;98831.09;;;4.01;100.00
40315;BME280;26021;45.640;11.302;2023-01-26T03:37:16;98834.06;;;4.18;100.00
40315;BME280;26021;45.640;11.302;2023-01-26T03:39:49;98831.78;;;3.94;100.00
40315;BME280;26021;45.640;11.302;2023-01-26T03:42:34;98822.16;;;3.93;100.00
40315;BME280;26021;45.640;11.302;2023-01-26T03:45:18;98820.66;;;4.00;100.00
40315;BME280;26021;45.640;11.302;2023-01-26T03:48:07;98817.75;;;4.12;100.00
40315;BME280;26021;45.640;11.302;2023-01-26T03:50:51;98814.53;;;4.09;100.00
40315;BME280;26021;45.640;11.302;2023-01-26T03:53:35;98619.59;;;3.11;100.00
40315;BME280;26021;45.640;11.302;2023-01-26T03:56:19;98809.88;;;4.51;100.00
40315;BME280;26021;45.640;11.302;2023-01-26T03:59:00;98801.47;;;4.27;100.00
40315;BME280;26021;45.640;11.302;2023-01-26T04:01:33;98805.06;;;4.06;100.00
40315;BME280;26021;45.640;11.302;2023-01-26T04:03:59;98793.09;;;4.12;100.00
40315;BME280;26021;45.640;11.302;2023-01-26T04:06:45;98793.63;;;3.96;100.00
40315;BME280;26021;45.640;11.302;2023-01-26T04:09:30;98792.13;;;4.13;100.00
40315;BME280;26021;45.640;11.302;2023-01-26T04:11:55;98794.06;;;4.21;100.00
40315;BME280;26021;45.640;11.302;2023-01-26T04:14:21;98795.59;;;4.04;100.00
40315;BME280;26021;45.640;11.302;2023-01-26T04:17:05;98781.75;;;3.81;100.00
40315;BME280;26021;45.640;11.302;2023-01-26T04:19:49;98737.41;;;3.64;100.00
40315;BME280;26021;45.640;11.302;2023-01-26T04:22:37;98661.00;;;3.01;100.00
40315;BME280;26021;45.640;11.302;2023-01-26T04:25:09;98748.69;;;3.56;100.00
40315;BME280;26021;45.640;11.302;2023-01-26T04:27:35;98760.16;;;3.76;100.00
40315;BME280;26021;45.640;11.302;2023-01-26T04:30:02;98755.16;;;3.82;100.00
40315;BME280;26021;45.640;11.302;2023-01-26T04:32:28;98726.88;;;3.73;100.00
40315;BME280;26021;45.640;11.302;2023-01-26T04:34:54;98760.34;;;4.03;100.00
40315;BME280;26021;45.640;11.302;2023-01-26T04:37:20;98744.88;;;4.28;100.00
40315;BME280;26021;45.640;11.302;2023-01-26T04:39:45;98670.63;;;3.71;100.00
40315;BME280;26021;45.640;11.302;2023-01-26T04:42:11;98744.34;;;4.24;100.00
40315;BME280;26021;45.640;11.302;2023-01-26T04:44:36;98740.84;;;4.43;100.00
40315;BME280;26021;45.640;11.302;2023-01-26T04:47:01;98747.97;;;4.13;100.00
40315;BME280;26021;45.640;11.302;2023-01-26T04:49:27;98736.38;;;4.34;100.00
40315;BME280;26021;45.640;11.302;2023-01-26T04:51:52;98740.00;;;4.23;100.00
40315;BME280;26021;45.640;11.302;2023-01-26T04:54:18;98729.84;;;3.99;100.00
40315;BME280;26021;45.640;11.302;2023-01-26T04:56:43;98736.94;;;4.08;100.00
40315;BME280;26021;45.640;11.302;2023-01-26T04:59:09;98727.19;;;3.99;100.00
40315;BME280;26021;45.640;11.302;2023-01-26T05:01:35;98730.25;;;3.85;100.00
40315;BME280;26021;45.640;11.302;2023-01-26T05:04:03;98737.22;;;4.05;100.00
40315;BME280;26021;45.640;11.302;2023-01-26T05:06:29;98736.25;;;4.06;100.00
40315;BME280;26021;45.640;11.302;2023-01-26T05:08:55;98724.13;;;4.04;100.00
40315;BME280;26021;45.640;11.302;2023-01-26T05:11:20;98718.69;;;3.76;100.00
40315;BME280;26021;45.640;11.302;2023-01-26T05:13:46;98706.38;;;3.56;100.00
40315;BME280;26021;45.640;11.302;2023-01-26T05:16:12;98718.63;;;3.67;100.00
40315;BME280;26021;45.640;11.302;2023-01-26T05:18:42;98714.44;;;3.64;100.00
40315;BME280;26021;45.640;11.302;2023-01-26T05:21:09;98700.56;;;3.72;100.00
40315;BME280;26021;45.640;11.302;2023-01-26T05:23:34;98717.28;;;3.82;100.00
40315;BME280;26021;45.640;11.302;2023-01-26T05:26:00;98708.03;;;3.57;100.00
40315;BME280;26021;45.640;11.302;2023-01-26T05:28:25;98716.50;;;3.41;100.00
40315;BME280;26021;45.640;11.302;2023-01-26T05:30:51;98712.59;;;3.36;100.00
40315;BME280;26021;45.640;11.302;2023-01-26T05:33:16;98710.63;;;3.38;100.00
40315;BME280;26021;45.640;11.302;2023-01-26T05:35:50;98728.16;;;3.39;100.00
40315;BME280;26021;45.640;11.302;2023-01-26T05:38:16;98719.88;;;3.63;100.00
40315;BME280;26021;45.640;11.302;2023-01-26T05:40:41;98689.56;;;3.17;100.00
40315;BME280;26021;45.640;11.302;2023-01-26T05:43:07;98699.41;;;3.05;100.00
40315;BME280;26021;45.640;11.302;2023-01-26T05:45:33;98713.50;;;3.15;100.00
40315;BME280;26021;45.640;11.302;2023-01-26T05:47:59;98723.97;;;3.27;100.00
40315;BME280;26021;45.640;11.302;2023-01-26T05:50:25;98720.25;;;3.39;100.00
40315;BME280;26021;45.640;11.302;2023-01-26T05:52:50;98644.78;;;2.85;100.00
40315;BME280;26021;45.640;11.302;2023-01-26T05:55:16;98716.84;;;3.17;100.00
40315;BME280;26021;45.640;11.302;2023-01-26T05:57:41;98723.88;;;3.07;100.00
40315;BME280;26021;45.640;11.302;2023-01-26T06:00:09;98741.50;;;3.28;100.00
40315;BME280;26021;45.640;11.302;2023-01-26T06:02:34;98722.25;;;3.16;100.00
40315;BME280;26021;45.640;11.302;2023-01-26T06:05:00;98719.97;;;2.81;100.00
40315;BME280;26021;45.640;11.302;2023-01-26T06:07:25;98740.53;;;2.77;100.00
40315;BME280;26021;45.640;11.302;2023-01-26T06:09:51;98683.91;;;2.40;100.00
40315;BME280;26021;45.640;11.302;2023-01-26T06:12:18;98739.25;;;2.72;100.00
40315;BME280;26021;45.640;11.302;2023-01-26T06:14:45;98740.28;;;2.80;100.00
40315;BME280;26021;45.640;11.302;2023-01-26T06:17:11;98732.75;;;2.76;100.00
40315;BME280;26021;45.640;11.302;2023-01-26T06:19:38;98748.06;;;2.82;100.00
40315;BME280;26021;45.640;11.302;2023-01-26T06:22:06;98722.22;;;2.85;100.00
40315;BME280;26021;45.640;11.302;2023-01-26T06:24:32;98735.25;;;2.98;100.00
40315;BME280;26021;45.640;11.302;2023-01-26T06:26:58;98734.47;;;2.86;100.00
40315;BME280;26021;45.640;11.302;2023-01-26T06:29:24;98732.34;;;2.80;100.00
40315;BME280;26021;45.640;11.302;2023-01-26T06:31:49;98735.16;;;2.88;100.00
40315;BME280;26021;45.640;11.302;2023-01-26T06:34:15;98728.78;;;2.91;100.00
40315;BME280;26021;45.640;11.302;2023-01-26T06:36:40;98731.13;;;2.84;100.00
40315;BME280;26021;45.640;11.302;2023-01-26T06:39:06;98650.59;;;2.48;100.00
40315;BME280;26021;45.640;11.302;2023-01-26T06:41:31;98717.47;;;3.00;100.00
40315;BME280;26021;45.640;11.302;2023-01-26T06:43:57;98678.25;;;2.75;100.00
40315;BME280;26021;45.640;11.302;2023-01-26T06:46:22;98723.50;;;2.91;100.00
40315;BME280;26021;45.640;11.302;2023-01-26T06:48:48;98717.16;;;2.73;100.00
40315;BME280;26021;45.640;11.302;2023-01-26T06:53:50;98720.28;;;2.87;100.00
40315;BME280;26021;45.640;11.302;2023-01-26T06:56:16;98711.66;;;2.85;100.00
40315;BME280;26021;45.640;11.302;2023-01-26T06:58:42;98717.06;;;2.84;100.00
40315;BME280;26021;45.640;11.302;2023-01-26T07:01:12;98712.44;;;2.76;100.00
40315;BME280;26021;45.640;11.302;2023-01-26T07:03:40;98642.16;;;2.13;100.00
40315;BME280;26021;45.640;11.302;2023-01-26T07:06:05;98714.84;;;2.59;100.00
40315;BME280;26021;45.640;11.302;2023-01-26T07:08:32;98708.84;;;2.77;100.00
40315;BME280;26021;45.640;11.302;2023-01-26T07:10:57;98700.66;;;2.80;100.00
40315;BME280;26021;45.640;11.302;2023-01-26T07:13:22;98712.84;;;2.72;100.00
40315;BME280;26021;45.640;11.302;2023-01-26T07:15:48;98716.97;;;2.65;100.00
40315;BME280;26021;45.640;11.302;2023-01-26T07:18:14;98710.47;;;2.69;100.00
40315;BME280;26021;45.640;11.302;2023-01-26T07:20:40;98372.38;;;0.78;100.00
40315;BME280;26021;45.640;11.302;2023-01-26T07:23:05;98714.16;;;2.87;100.00
40315;BME280;26021;45.640;11.302;2023-01-26T07:25:31;98662.25;;;2.46;100.00
40315;BME280;26021;45.640;11.302;2023-01-26T07:27:57;98712.16;;;2.49;100.00
40315;BME280;26021;45.640;11.302;2023-01-26T07:30:24;98715.13;;;2.55;100.00
40315;BME280;26021;45.640;11.302;2023-01-26T07:32:49;98714.19;;;2.66;100.00
40315;BME280;26021;45.640;11.302;2023-01-26T07:35:15;98707.38;;;2.64;100.00
40315;BME280;26021;45.640;11.302;2023-01-26T07:37:41;98685.72;;;2.70;100.00
40315;BME280;26021;45.640;11.302;2023-01-26T07:40:07;98701.09;;;2.85;100.00
40315;BME280;26021;45.640;11.302;2023-01-26T07:42:34;98601.31;;;2.07;100.00
40315;BME280;26021;45.640;11.302;2023-01-26T07:45:00;98719.72;;;2.84;100.00
40315;BME280;26021;45.640;11.302;2023-01-26T07:47:26;98711.66;;;2.85;100.00
40315;BME280;26021;45.640;11.302;2023-01-26T07:49:51;98719.16;;;2.80;100.00
40315;BME280;26021;45.640;11.302;2023-01-26T07:52:17;98692.84;;;3.00;100.00
40315;BME280;26021;45.640;11.302;2023-01-26T07:54:42;98712.31;;;2.78;100.00
40315;BME280;26021;45.640;11.302;2023-01-26T07:57:08;98706.09;;;3.09;100.00
40315;BME280;26021;45.640;11.302;2023-01-26T07:59:33;98675.59;;;2.75;100.00
40315;BME280;26021;45.640;11.302;2023-01-26T08:01:59;98709.53;;;3.00;100.00
40315;BME280;26021;45.640;11.302;2023-01-26T08:04:24;98655.06;;;2.78;100.00
40315;BME280;26021;45.640;11.302;2023-01-26T08:06:50;98719.09;;;3.32;100.00
40315;BME280;26021;45.640;11.302;2023-01-26T08:09:16;98645.75;;;3.14;100.00
40315;BME280;26021;45.640;11.302;2023-01-26T08:11:41;98701.22;;;3.55;100.00
40315;BME280;26021;45.640;11.302;2023-01-26T08:14:07;98663.00;;;3.18;100.00
40315;BME280;26021;45.640;11.302;2023-01-26T08:16:32;98711.38;;;3.49;100.00
40315;BME280;26021;45.640;11.302;2023-01-26T08:18:58;98700.09;;;3.57;100.00
40315;BME280;26021;45.640;11.302;2023-01-26T08:21:23;98704.97;;;3.62;100.00
40315;BME280;26021;45.640;11.302;2023-01-26T08:23:49;98658.63;;;3.48;100.00
40315;BME280;26021;45.640;11.302;2023-01-26T08:26:16;98697.06;;;3.62;100.00
40315;BME280;26021;45.640;11.302;2023-01-26T08:28:42;98649.94;;;3.27;100.00
40315;BME280;26021;45.640;11.302;2023-01-26T08:31:13;98709.28;;;3.53;100.00
40315;BME280;26021;45.640;11.302;2023-01-26T08:33:42;98710.97;;;3.64;100.00
40315;BME280;26021;45.640;11.302;2023-01-26T08:36:10;98604.22;;;2.96;100.00
40315;BME280;26021;45.640;11.302;2023-01-26T08:38:36;98661.34;;;3.17;100.00
40315;BME280;26021;45.640;11.302;2023-01-26T08:41:02;98675.81;;;3.23;100.00
40315;BME280;26021;45.640;11.302;2023-01-26T08:43:28;98705.31;;;3.28;100.00
40315;BME280;26021;45.640;11.302;2023-01-26T08:45:54;98645.22;;;2.90;100.00
40315;BME280;26021;45.640;11.302;2023-01-26T08:48:20;98701.09;;;3.16;100.00
40315;BME280;26021;45.640;11.302;2023-01-26T08:50:45;98680.09;;;3.14;100.00
40315;BME280;26021;45.640;11.302;2023-01-26T08:53:11;98704.09;;;3.42;100.00
40315;BME280;26021;45.640;11.302;2023-01-26T08:55:37;98708.69;;;3.40;100.00
40315;BME280;26021;45.640;11.302;2023-01-26T08:58:03;98653.31;;;3.38;100.00
40315;BME280;26021;45.640;11.302;2023-01-26T09:00:28;98622.97;;;3.33;100.00
40315;BME280;26021;45.640;11.302;2023-01-26T09:03:01;98704.50;;;3.97;100.00
40315;BME280;26021;45.640;11.302;2023-01-26T09:05:30;98688.19;;;3.72;100.00
40315;BME280;26021;45.640;11.302;2023-01-26T09:07:56;98702.13;;;4.03;100.00
40315;BME280;26021;45.640;11.302;2023-01-26T09:10:22;98469.84;;;2.43;100.00
40315;BME280;26021;45.640;11.302;2023-01-26T09:12:47;98696.69;;;4.14;100.00
40315;BME280;26021;45.640;11.302;2023-01-26T09:15:13;98413.31;;;2.45;100.00
40315;BME280;26021;45.640;11.302;2023-01-26T09:17:39;98667.53;;;4.43;100.00
40315;BME280;26021;45.640;11.302;2023-01-26T09:20:07;98692.22;;;5.00;100.00
40315;BME280;26021;45.640;11.302;2023-01-26T09:22:33;98685.72;;;4.85;100.00
40315;BME280;26021;45.640;11.302;2023-01-26T09:24:59;98676.69;;;5.05;99.54
40315;BME280;26021;45.640;11.302;2023-01-26T09:27:25;98681.97;;;5.42;98.69
40315;BME280;26021;45.640;11.302;2023-01-26T09:29:50;98690.16;;;5.77;97.23
40315;BME280;26021;45.640;11.302;2023-01-26T09:32:16;98700.59;;;6.05;94.33
40315;BME280;26021;45.640;11.302;2023-01-26T09:34:42;98699.31;;;5.64;87.42
40315;BME280;26021;45.640;11.302;2023-01-26T09:37:07;98569.75;;;4.69;87.02
40315;BME280;26021;45.640;11.302;2023-01-26T09:39:33;98699.97;;;5.49;89.48
40315;BME280;26021;45.640;11.302;2023-01-26T09:42:28;98674.88;;;5.61;90.24
40315;BME280;26021;45.640;11.302;2023-01-26T09:50:16;98680.72;;;5.64;88.58
40315;BME280;26021;45.640;11.302;2023-01-26T09:55:19;98690.91;;;5.69;84.69
40315;BME280;26021;45.640;11.302;2023-01-26T10:08:24;98669.34;;;5.99;88.84
40315;BME280;26021;45.640;11.302;2023-01-26T10:10:58;98634.03;;;5.71;86.24
40315;BME280;26021;45.640;11.302;2023-01-26T10:13:26;98672.66;;;6.37;83.70
40315;BME280;26021;45.640;11.302;2023-01-26T10:16:00;98670.84;;;6.20;85.75
40315;BME280;26021;45.640;11.302;2023-01-26T10:21:12;98669.63;;;6.32;84.09
40315;BME280;26021;45.640;11.302;2023-01-26T10:23:44;98650.53;;;6.54;83.19
40315;BME280;26021;45.640;11.302;2023-01-26T10:26:15;98656.03;;;6.61;84.18
40315;BME280;26021;45.640;11.302;2023-01-26T10:28:42;98656.66;;;6.55;83.35
40315;BME280;26021;45.640;11.302;2023-01-26T10:31:15;98655.72;;;6.64;81.21
40315;BME280;26021;45.640;11.302;2023-01-26T10:33:55;98468.13;;;5.41;82.74
40315;BME280;26021;45.640;11.302;2023-01-26T10:36:21;98655.50;;;6.31;83.02
40315;BME280;26021;45.640;11.302;2023-01-26T10:38:48;98542.44;;;5.85;81.60
40315;BME280;26021;45.640;11.302;2023-01-26T10:43:51;98636.81;;;6.67;80.33
40315;BME280;26021;45.640;11.302;2023-01-26T10:46:26;98637.97;;;6.64;80.91
40315;BME280;26021;45.640;11.302;2023-01-26T10:48:53;98582.91;;;6.49;81.79
40315;BME280;26021;45.640;11.302;2023-01-26T10:51:24;98623.81;;;6.82;79.46
40315;BME280;26021;45.640;11.302;2023-01-26T10:54:21;98606.84;;;6.57;81.89
40315;BME280;26021;45.640;11.302;2023-01-26T10:56:57;98621.03;;;6.91;81.43
40315;BME280;26021;45.640;11.302;2023-01-26T10:59:27;98610.63;;;7.14;78.07
40315;BME280;26021;45.640;11.302;2023-01-26T11:01:56;98601.94;;;6.96;76.11
40315;BME280;26021;45.640;11.302;2023-01-26T11:04:24;98599.50;;;7.11;77.12
40315;BME280;26021;45.640;11.302;2023-01-26T11:06:49;98588.72;;;6.78;77.05
40315;BME280;26021;45.640;11.302;2023-01-26T11:09:23;98596.22;;;6.83;74.08
40315;BME280;26021;45.640;11.302;2023-01-26T11:11:58;98589.06;;;6.49;76.43
40315;BME280;26021;45.640;11.302;2023-01-26T11:14:25;98525.38;;;5.88;77.43
40315;BME280;26021;45.640;11.302;2023-01-26T11:22:09;98569.25;;;6.44;79.45
40315;BME280;26021;45.640;11.302;2023-01-26T11:25:14;98562.47;;;6.49;78.63
40315;BME280;26021;45.640;11.302;2023-01-26T11:33:30;98510.06;;;6.59;78.32
40315;BME280;26021;45.640;11.302;2023-01-26T11:38:39;98512.56;;;6.61;76.24
40315;BME280;26021;45.640;11.302;2023-01-26T12:00:19;98446.34;;;6.76;72.86
40315;BME280;26021;45.640;11.302;2023-01-26T12:02:53;98472.97;;;6.92;73.66
40315;BME280;26021;45.640;11.302;2023-01-26T12:05:28;98331.97;;;6.35;71.69
40315;BME280;26021;45.640;11.302;2023-01-26T12:08:03;98483.16;;;7.21;73.27
40315;BME280;26021;45.640;11.302;2023-01-26T12:10:43;98481.84;;;7.33;72.04
40315;BME280;26021;45.640;11.302;2023-01-26T12:13:19;98470.53;;;7.23;72.60
40315;BME280;26021;45.640;11.302;2023-01-26T12:15:55;98309.25;;;6.41;72.83
40315;BME280;26021;45.640;11.302;2023-01-26T12:20:55;98425.97;;;7.41;71.27
40315;BME280;26021;45.640;11.302;2023-01-26T12:23:34;98449.72;;;7.91;73.03
40315;BME280;26021;45.640;11.302;2023-01-26T12:26:23;98446.38;;;7.97;73.09
40315;BME280;26021;45.640;11.302;2023-01-26T12:32:06;98405.84;;;7.71;69.76
40315;BME280;26021;45.640;11.302;2023-01-26T12:34:33;98440.94;;;7.75;69.08
40315;BME280;26021;45.640;11.302;2023-01-26T12:39:45;98420.25;;;7.93;71.81
40315;BME280;26021;45.640;11.302;2023-01-26T12:45:00;98337.38;;;7.24;70.24
40315;BME280;26021;45.640;11.302;2023-01-26T12:50:32;98424.16;;;7.66;70.11
40315;BME280;26021;45.640;11.302;2023-01-26T12:53:06;98422.09;;;7.92;71.02
40315;BME280;26021;45.640;11.302;2023-01-26T12:55:52;98415.28;;;7.82;69.71
40315;BME280;26021;45.640;11.302;2023-01-26T12:58:23;98412.03;;;7.55;70.49
40315;BME280;26021;45.640;11.302;2023-01-26T13:01:01;98406.53;;;7.57;70.46
40315;BME280;26021;45.640;11.302;2023-01-26T13:03:38;98415.81;;;7.69;70.04
40315;BME280;26021;45.640;11.302;2023-01-26T13:11:01;98394.66;;;7.84;69.10
40315;BME280;26021;45.640;11.302;2023-01-26T13:13:51;98399.03;;;7.36;69.96
40315;BME280;26021;45.640;11.302;2023-01-26T13:18:53;98393.03;;;7.42;72.49
40315;BME280;26021;45.640;11.302;2023-01-26T13:26:47;98385.56;;;7.29;73.05
40315;BME280;26021;45.640;11.302;2023-01-26T13:29:28;98391.72;;;7.38;73.80
40315;BME280;26021;45.640;11.302;2023-01-26T13:34:43;98389.72;;;6.99;76.44
40315;BME280;26021;45.640;11.302;2023-01-26T13:37:28;98382.25;;;6.95;76.16
40315;BME280;26021;45.640;11.302;2023-01-26T13:40:00;98379.25;;;6.74;77.47
40315;BME280;26021;45.640;11.302;2023-01-26T13:42:37;98372.28;;;6.89;78.17
40315;BME280;26021;45.640;11.302;2023-01-26T13:45:21;98350.47;;;6.61;79.14
40315;BME280;26021;45.640;11.302;2023-01-26T13:47:52;98287.97;;;6.24;80.14
40315;BME280;26021;45.640;11.302;2023-01-26T13:50:30;98348.34;;;6.81;79.42
40315;BME280;26021;45.640;11.302;2023-01-26T13:52:56;98297.50;;;6.67;77.72
40315;BME280;26021;45.640;11.302;2023-01-26T13:55:28;98366.97;;;7.05;77.06
40315;BME280;26021;45.640;11.302;2023-01-26T13:58:14;98372.44;;;6.79;78.14
40315;BME280;26021;45.640;11.302;2023-01-26T14:00:40;98365.63;;;6.77;78.90
40315;BME280;26021;45.640;11.302;2023-01-26T14:03:19;98359.66;;;6.99;79.49
40315;BME280;26021;45.640;11.302;2023-01-26T14:05:51;98359.00;;;6.89;78.62
40315;BME280;26021;45.640;11.302;2023-01-26T14:08:17;98269.88;;;6.20;79.20
40315;BME280;26021;45.640;11.302;2023-01-26T14:10:45;98349.47;;;6.62;81.66
40315;BME280;26021;45.640;11.302;2023-01-26T14:13:31;98362.13;;;6.76;81.33
40315;BME280;26021;45.640;11.302;2023-01-26T14:15:59;98359.97;;;6.80;81.44
40315;BME280;26021;45.640;11.302;2023-01-26T14:18:26;98325.03;;;6.42;82.49
40315;BME280;26021;45.640;11.302;2023-01-26T14:21:03;98363.41;;;6.56;85.09
40315;BME280;26021;45.640;11.302;2023-01-26T14:23:36;98362.25;;;6.58;84.69
40315;BME280;26021;45.640;11.302;2023-01-26T14:26:03;98356.59;;;6.61;86.15
40315;BME280;26021;45.640;11.302;2023-01-26T14:28:32;98175.63;;;5.57;84.24
40315;BME280;26021;45.640;11.302;2023-01-26T14:33:35;98325.34;;;6.39;84.39
40315;BME280;26021;45.640;11.302;2023-01-26T14:36:03;98351.78;;;6.65;86.23
40315;BME280;26021;45.640;11.302;2023-01-26T14:38:30;98340.47;;;6.47;86.48
40315;BME280;26021;45.640;11.302;2023-01-26T14:41:12;98356.59;;;6.61;87.62